sensor_id;sensor_type;location;lat;lon;timestamp;temperature;humidity
66343;DHT22;53144;51.524;5.080;2023-04-25T00:00:15;6.70;90.24
66343;DHT22;53144;51.524;5.080;2023-04-25T00:02:41;6.69;90.73
66343;DHT22;53144;51.524;5.080;2023-04-25T00:05:07;6.71;90.61
66343;DHT22;53144;51.524;5.080;2023-04-25T00:07:33;6.67;90.67
66343;DHT22;53144;51.524;5.080;2023-04-25T00:09:59;6.66;90.71
66343;DHT22;53144;51.524;5.080;2023-04-25T00:12:24;6.67;90.75
66343;DHT22;53144;51.524;5.080;2023-04-25T00:14:49;6.71;90.56
66343;DHT22;53144;51.524;5.080;2023-04-25T00:17:15;6.73;91.08
66343;DHT22;53144;51.524;5.080;2023-04-25T00:19:44;6.73;90.20
66343;DHT22;53144;51.524;5.080;2023-04-25T00:22:11;6.71;90.40
66343;DHT22;53144;51.524;5.080;2023-04-25T00:24:37;6.67;90.04
66343;DHT22;53144;51.524;5.080;2023-04-25T00:27:02;6.69;90.46
66343;DHT22;53144;51.524;5.080;2023-04-25T00:29:28;6.63;90.31
66343;DHT22;53144;51.524;5.080;2023-04-25T00:31:53;6.57;90.55
66343;DHT22;53144;51.524;5.080;2023-04-25T00:34:19;6.54;90.85
66343;DHT22;53144;51.524;5.080;2023-04-25T00:36:44;6.52;91.69
66343;DHT22;53144;51.524;5.080;2023-04-25T00:39:10;6.39;91.07
66343;DHT22;53144;51.524;5.080;2023-04-25T00:41:35;6.26;91.32
66343;DHT22;53144;51.524;5.080;2023-04-25T00:44:01;6.19;91.41
66343;DHT22;53144;51.524;5.080;2023-04-25T00:46:27;6.09;92.81
66343;DHT22;53144;51.524;5.080;2023-04-25T00:48:52;6.04;92.93
66343;DHT22;53144;51.524;5.080;2023-04-25T00:51:20;6.04;93.09
66343;DHT22;53144;51.524;5.080;2023-04-25T00:53:46;6.01;93.21
66343;DHT22;53144;51.524;5.080;2023-04-25T00:56:13;6.05;93.03
66343;DHT22;53144;51.524;5.080;2023-04-25T00:58:40;6.09;93.19
66343;DHT22;53144;51.524;5.080;2023-04-25T01:01:06;6.11;93.24
66343;DHT22;53144;51.524;5.080;2023-04-25T01:03:33;6.09;93.91
66343;DHT22;53144;51.524;5.080;2023-04-25T01:06:01;6.15;93.08
66343;DHT22;53144;51.524;5.080;2023-04-25T01:08:28;6.13;93.23
66343;DHT22;53144;51.524;5.080;2023-04-25T01:10:53;6.18;93.55
66343;DHT22;53144;51.524;5.080;2023-04-25T01:13:19;6.19;93.15
66343;DHT22;53144;51.524;5.080;2023-04-25T01:15:45;6.09;92.73
66343;DHT22;53144;51.524;5.080;2023-04-25T01:18:10;6.04;92.91
66343;DHT22;53144;51.524;5.080;2023-04-25T01:20:37;5.99;92.91
66343;DHT22;53144;51.524;5.080;2023-04-25T01:23:03;6.01;93.27
66343;DHT22;53144;51.524;5.080;2023-04-25T01:25:30;5.98;93.35
66343;DHT22;53144;51.524;5.080;2023-04-25T01:27:56;5.94;93.42
66343;DHT22;53144;51.524;5.080;2023-04-25T01:30:21;5.94;93.40
66343;DHT22;53144;51.524;5.080;2023-04-25T01:32:47;5.91;93.51
66343;DHT22;53144;51.524;5.080;2023-04-25T01:35:13;5.95;93.12
66343;DHT22;53144;51.524;5.080;2023-04-25T01:37:42;6.01;93.13
66343;DHT22;53144;51.524;5.080;2023-04-25T01:40:12;6.01;92.72
66343;DHT22;53144;51.524;5.080;2023-04-25T01:42:39;6.04;92.93
66343;DHT22;53144;51.524;5.080;2023-04-25T01:45:06;6.15;92.66
66343;DHT22;53144;51.524;5.080;2023-04-25T01:47:32;6.12;91.71
66343;DHT22;53144;51.524;5.080;2023-04-25T01:49:57;6.16;91.88
66343;DHT22;53144;51.524;5.080;2023-04-25T01:52:23;6.22;91.96
66343;DHT22;53144;51.524;5.080;2023-04-25T01:54:49;6.26;91.46
66343;DHT22;53144;51.524;5.080;2023-04-25T01:57:16;6.26;90.96
66343;DHT22;53144;51.524;5.080;2023-04-25T01:59:42;6.26;90.94
66343;DHT22;53144;51.524;5.080;2023-04-25T02:02:08;6.21;91.37
66343;DHT22;53144;51.524;5.080;2023-04-25T02:04:33;6.11;91.31
66343;DHT22;53144;51.524;5.080;2023-04-25T02:06:58;6.09;91.72
66343;DHT22;53144;51.524;5.080;2023-04-25T02:09:24;6.02;91.99
66343;DHT22;53144;51.524;5.080;2023-04-25T02:11:49;6.08;92.37
66343;DHT22;53144;51.524;5.080;2023-04-25T02:14:15;6.06;92.44
66343;DHT22;53144;51.524;5.080;2023-04-25T02:16:41;5.99;92.23
66343;DHT22;53144;51.524;5.080;2023-04-25T02:19:09;5.97;92.30
66343;DHT22;53144;51.524;5.080;2023-04-25T02:21:35;5.94;92.48
66343;DHT22;53144;51.524;5.080;2023-04-25T02:24:01;5.95;92.81
66343;DHT22;53144;51.524;5.080;2023-04-25T02:26:26;5.95;92.73
66343;DHT22;53144;51.524;5.080;2023-04-25T02:28:52;5.88;92.84
66343;DHT22;53144;51.524;5.080;2023-04-25T02:31:17;5.81;93.01
66343;DHT22;53144;51.524;5.080;2023-04-25T02:33:43;5.78;93.21
66343;DHT22;53144;51.524;5.080;2023-04-25T02:36:09;5.74;93.03
66343;DHT22;53144;51.524;5.080;2023-04-25T02:38:34;5.74;93.29
66343;DHT22;53144;51.524;5.080;2023-04-25T02:41:00;5.75;93.26
66343;DHT22;53144;51.524;5.080;2023-04-25T02:43:25;5.75;93.45
66343;DHT22;53144;51.524;5.080;2023-04-25T02:45:51;5.84;93.63
66343;DHT22;53144;51.524;5.080;2023-04-25T02:48:16;5.91;93.67
66343;DHT22;53144;51.524;5.080;2023-04-25T02:50:42;5.79;93.62
66343;DHT22;53144;51.524;5.080;2023-04-25T02:53:07;5.81;94.25
66343;DHT22;53144;51.524;5.080;2023-04-25T02:55:32;5.78;94.26
66343;DHT22;53144;51.524;5.080;2023-04-25T02:57:58;5.77;93.97
66343;DHT22;53144;51.524;5.080;2023-04-25T03:00:24;5.75;93.91
66343;DHT22;53144;51.524;5.080;2023-04-25T03:02:50;5.73;94.01
66343;DHT22;53144;51.524;5.080;2023-04-25T03:05:16;5.73;93.89
66343;DHT22;53144;51.524;5.080;2023-04-25T03:07:41;5.75;94.06
66343;DHT22;53144;51.524;5.080;2023-04-25T03:10:09;5.75;93.82
66343;DHT22;53144;51.524;5.080;2023-04-25T03:12:34;5.68;93.51
66343;DHT22;53144;51.524;5.080;2023-04-25T03:14:59;5.71;93.50
66343;DHT22;53144;51.524;5.080;2023-04-25T03:17:25;5.75;93.59
66343;DHT22;53144;51.524;5.080;2023-04-25T03:19:50;5.79;94.10
66343;DHT22;53144;51.524;5.080;2023-04-25T03:22:16;5.82;93.93
66343;DHT22;53144;51.524;5.080;2023-04-25T03:24:41;5.84;93.82
66343;DHT22;53144;51.524;5.080;2023-04-25T03:27:07;5.82;94.04
66343;DHT22;53144;51.524;5.080;2023-04-25T03:29:32;5.84;93.65
66343;DHT22;53144;51.524;5.080;2023-04-25T03:31:57;5.82;93.71
66343;DHT22;53144;51.524;5.080;2023-04-25T03:34:23;5.87;93.92
66343;DHT22;53144;51.524;5.080;2023-04-25T03:36:49;5.84;93.62
66343;DHT22;53144;51.524;5.080;2023-04-25T03:39:14;5.85;94.05
66343;DHT22;53144;51.524;5.080;2023-04-25T03:41:40;5.85;93.73
66343;DHT22;53144;51.524;5.080;2023-04-25T03:44:05;5.88;93.87
66343;DHT22;53144;51.524;5.080;2023-04-25T03:46:31;5.95;93.78
66343;DHT22;53144;51.524;5.080;2023-04-25T03:48:56;5.98;93.89
66343;DHT22;53144;51.524;5.080;2023-04-25T03:51:22;5.97;94.14
66343;DHT22;53144;51.524;5.080;2023-04-25T03:53:47;6.04;93.69
66343;DHT22;53144;51.524;5.080;2023-04-25T03:56:13;5.94;93.70
66343;DHT22;53144;51.524;5.080;2023-04-25T03:58:38;5.99;93.75
66343;DHT22;53144;51.524;5.080;2023-04-25T04:01:04;5.97;93.83
66343;DHT22;53144;51.524;5.080;2023-04-25T04:03:36;6.01;93.93
66343;DHT22;53144;51.524;5.080;2023-04-25T04:06:05;5.84;93.95
66343;DHT22;53144;51.524;5.080;2023-04-25T04:08:32;5.82;94.12
66343;DHT22;53144;51.524;5.080;2023-04-25T04:10:58;5.88;93.92
66343;DHT22;53144;51.524;5.080;2023-04-25T04:13:25;5.77;94.13
66343;DHT22;53144;51.524;5.080;2023-04-25T04:15:50;5.78;94.25
66343;DHT22;53144;51.524;5.080;2023-04-25T04:18:16;5.75;94.33
66343;DHT22;53144;51.524;5.080;2023-04-25T04:20:41;5.81;94.34
66343;DHT22;53144;51.524;5.080;2023-04-25T04:23:06;5.81;94.10
66343;DHT22;53144;51.524;5.080;2023-04-25T04:25:32;5.82;94.04
66343;DHT22;53144;51.524;5.080;2023-04-25T04:27:57;5.79;94.06
66343;DHT22;53144;51.524;5.080;2023-04-25T04:30:24;5.84;94.00
66343;DHT22;53144;51.524;5.080;2023-04-25T04:32:51;5.88;93.81
66343;DHT22;53144;51.524;5.080;2023-04-25T04:35:16;5.91;93.22
66343;DHT22;53144;51.524;5.080;2023-04-25T04:37:42;5.77;93.52
66343;DHT22;53144;51.524;5.080;2023-04-25T04:40:09;5.74;93.47
66343;DHT22;53144;51.524;5.080;2023-04-25T04:42:34;5.81;94.07
66343;DHT22;53144;51.524;5.080;2023-04-25T04:45:01;5.75;93.29
66343;DHT22;53144;51.524;5.080;2023-04-25T04:47:28;5.79;93.56
66343;DHT22;53144;51.524;5.080;2023-04-25T04:49:56;5.73;93.44
66343;DHT22;53144;51.524;5.080;2023-04-25T04:52:22;5.77;93.23
66343;DHT22;53144;51.524;5.080;2023-04-25T04:54:47;5.74;92.79
66343;DHT22;53144;51.524;5.080;2023-04-25T04:57:13;5.78;92.72
66343;DHT22;53144;51.524;5.080;2023-04-25T04:59:38;5.78;92.83
66343;DHT22;53144;51.524;5.080;2023-04-25T05:02:04;5.67;92.21
66343;DHT22;53144;51.524;5.080;2023-04-25T05:04:29;5.73;92.70
66343;DHT22;53144;51.524;5.080;2023-04-25T05:06:54;5.79;92.91
66343;DHT22;53144;51.524;5.080;2023-04-25T05:09:20;5.81;92.16
66343;DHT22;53144;51.524;5.080;2023-04-25T05:11:45;5.87;91.78
66343;DHT22;53144;51.524;5.080;2023-04-25T05:14:11;5.74;89.87
66343;DHT22;53144;51.524;5.080;2023-04-25T05:16:36;5.77;89.55
66343;DHT22;53144;51.524;5.080;2023-04-25T05:19:02;5.81;89.97
66343;DHT22;53144;51.524;5.080;2023-04-25T05:21:27;5.78;88.93
66343;DHT22;53144;51.524;5.080;2023-04-25T05:23:53;5.84;88.99
66343;DHT22;53144;51.524;5.080;2023-04-25T05:26:19;5.88;88.91
66343;DHT22;53144;51.524;5.080;2023-04-25T05:28:45;5.92;87.81
66343;DHT22;53144;51.524;5.080;2023-04-25T05:31:11;5.92;87.89
66343;DHT22;53144;51.524;5.080;2023-04-25T05:33:36;6.01;88.58
66343;DHT22;53144;51.524;5.080;2023-04-25T05:36:02;6.04;87.69
66343;DHT22;53144;51.524;5.080;2023-04-25T05:38:27;5.98;87.49
66343;DHT22;53144;51.524;5.080;2023-04-25T05:40:53;6.08;88.13
66343;DHT22;53144;51.524;5.080;2023-04-25T05:43:18;6.16;87.18
66343;DHT22;53144;51.524;5.080;2023-04-25T05:45:43;6.09;85.50
66343;DHT22;53144;51.524;5.080;2023-04-25T05:48:09;6.21;85.45
66343;DHT22;53144;51.524;5.080;2023-04-25T05:50:35;6.26;85.12
66343;DHT22;53144;51.524;5.080;2023-04-25T05:53:00;6.33;84.86
66343;DHT22;53144;51.524;5.080;2023-04-25T05:55:26;6.39;83.93
66343;DHT22;53144;51.524;5.080;2023-04-25T05:57:51;6.47;83.54
66343;DHT22;53144;51.524;5.080;2023-04-25T06:00:17;6.47;82.76
66343;DHT22;53144;51.524;5.080;2023-04-25T06:02:43;6.50;81.46
66343;DHT22;53144;51.524;5.080;2023-04-25T06:05:09;6.52;82.11
66343;DHT22;53144;51.524;5.080;2023-04-25T06:07:35;6.62;81.86
66343;DHT22;53144;51.524;5.080;2023-04-25T06:10:00;6.70;81.24
66343;DHT22;53144;51.524;5.080;2023-04-25T06:12:26;6.79;80.53
66343;DHT22;53144;51.524;5.080;2023-04-25T06:14:51;6.84;80.27
66343;DHT22;53144;51.524;5.080;2023-04-25T06:17:16;6.94;80.33
66343;DHT22;53144;51.524;5.080;2023-04-25T06:19:42;7.05;80.65
66343;DHT22;53144;51.524;5.080;2023-04-25T06:22:07;6.88;79.20
66343;DHT22;53144;51.524;5.080;2023-04-25T06:24:33;6.95;79.68
66343;DHT22;53144;51.524;5.080;2023-04-25T06:26:58;6.95;79.62
66343;DHT22;53144;51.524;5.080;2023-04-25T06:29:24;7.02;80.42
66343;DHT22;53144;51.524;5.080;2023-04-25T06:31:50;7.04;80.27
66343;DHT22;53144;51.524;5.080;2023-04-25T06:34:15;7.19;81.07
66343;DHT22;53144;51.524;5.080;2023-04-25T06:36:41;7.18;79.11
66343;DHT22;53144;51.524;5.080;2023-04-25T06:39:06;7.23;78.90
66343;DHT22;53144;51.524;5.080;2023-04-25T06:41:32;7.22;78.61
66343;DHT22;53144;51.524;5.080;2023-04-25T06:43:57;7.12;79.45
66343;DHT22;53144;51.524;5.080;2023-04-25T06:46:23;7.15;79.14
66343;DHT22;53144;51.524;5.080;2023-04-25T06:48:48;7.16;78.89
66343;DHT22;53144;51.524;5.080;2023-04-25T06:51:13;7.19;78.97
66343;DHT22;53144;51.524;5.080;2023-04-25T06:53:39;7.26;79.38
66343;DHT22;53144;51.524;5.080;2023-04-25T06:56:05;7.28;79.28
66343;DHT22;53144;51.524;5.080;2023-04-25T06:58:31;7.32;79.93
66343;DHT22;53144;51.524;5.080;2023-04-25T07:00:56;7.29;79.84
66343;DHT22;53144;51.524;5.080;2023-04-25T07:03:21;7.25;79.13
66343;DHT22;53144;51.524;5.080;2023-04-25T07:05:47;7.18;78.55
66343;DHT22;53144;51.524;5.080;2023-04-25T07:08:12;7.19;79.27
66343;DHT22;53144;51.524;5.080;2023-04-25T07:10:37;7.11;78.82
66343;DHT22;53144;51.524;5.080;2023-04-25T07:13:03;7.12;79.08
66343;DHT22;53144;51.524;5.080;2023-04-25T07:15:28;7.15;79.27
66343;DHT22;53144;51.524;5.080;2023-04-25T07:17:55;7.43;78.14
66343;DHT22;53144;51.524;5.080;2023-04-25T07:20:20;7.53;77.16
66343;DHT22;53144;51.524;5.080;2023-04-25T07:22:46;7.71;77.10
66343;DHT22;53144;51.524;5.080;2023-04-25T07:25:11;7.87;76.49
66343;DHT22;53144;51.524;5.080;2023-04-25T07:27:36;7.87;75.23
66343;DHT22;53144;51.524;5.080;2023-04-25T07:30:02;8.01;76.13
66343;DHT22;53144;51.524;5.080;2023-04-25T07:32:29;7.89;74.77
66343;DHT22;53144;51.524;5.080;2023-04-25T07:34:55;7.91;76.17
66343;DHT22;53144;51.524;5.080;2023-04-25T07:37:20;7.87;76.04
66343;DHT22;53144;51.524;5.080;2023-04-25T07:39:45;7.84;75.92
66343;DHT22;53144;51.524;5.080;2023-04-25T07:42:12;7.71;76.93
66343;DHT22;53144;51.524;5.080;2023-04-25T07:44:37;7.58;77.78
66343;DHT22;53144;51.524;5.080;2023-04-25T07:47:07;7.83;78.27
66343;DHT22;53144;51.524;5.080;2023-04-25T07:49:33;7.43;76.05
66343;DHT22;53144;51.524;5.080;2023-04-25T07:52:00;7.39;76.28
66343;DHT22;53144;51.524;5.080;2023-04-25T07:54:25;7.60;76.28
66343;DHT22;53144;51.524;5.080;2023-04-25T07:56:51;7.46;74.46
66343;DHT22;53144;51.524;5.080;2023-04-25T07:59:16;7.80;75.19
66343;DHT22;53144;51.524;5.080;2023-04-25T08:01:42;7.93;74.25
66343;DHT22;53144;51.524;5.080;2023-04-25T08:04:07;8.00;74.15
66343;DHT22;53144;51.524;5.080;2023-04-25T08:06:32;8.14;74.44
66343;DHT22;53144;51.524;5.080;2023-04-25T08:08:58;8.25;74.80
66343;DHT22;53144;51.524;5.080;2023-04-25T08:11:23;8.18;72.85
66343;DHT22;53144;51.524;5.080;2023-04-25T08:13:48;7.74;73.74
66343;DHT22;53144;51.524;5.080;2023-04-25T08:16:14;7.86;74.77
66343;DHT22;53144;51.524;5.080;2023-04-25T08:18:39;7.81;74.57
66343;DHT22;53144;51.524;5.080;2023-04-25T08:21:05;8.18;74.65
66343;DHT22;53144;51.524;5.080;2023-04-25T08:23:31;8.27;74.86
66343;DHT22;53144;51.524;5.080;2023-04-25T08:25:57;8.20;74.42
66343;DHT22;53144;51.524;5.080;2023-04-25T08:28:22;8.39;72.43
66343;DHT22;53144;51.524;5.080;2023-04-25T08:30:47;8.79;72.06
66343;DHT22;53144;51.524;5.080;2023-04-25T08:33:13;8.62;69.42
66343;DHT22;53144;51.524;5.080;2023-04-25T08:35:38;8.70;70.34
66343;DHT22;53144;51.524;5.080;2023-04-25T08:38:03;8.97;69.90
66343;DHT22;53144;51.524;5.080;2023-04-25T08:40:31;8.83;68.42
66343;DHT22;53144;51.524;5.080;2023-04-25T08:43:00;8.93;69.53
66343;DHT22;53144;51.524;5.080;2023-04-25T08:45:31;9.28;69.59
66343;DHT22;53144;51.524;5.080;2023-04-25T08:47:57;9.14;66.63
66343;DHT22;53144;51.524;5.080;2023-04-25T08:50:23;9.11;66.64
66343;DHT22;53144;51.524;5.080;2023-04-25T08:52:49;9.14;68.37
66343;DHT22;53144;51.524;5.080;2023-04-25T08:55:15;9.18;68.33
66343;DHT22;53144;51.524;5.080;2023-04-25T08:57:42;9.18;67.94
66343;DHT22;53144;51.524;5.080;2023-04-25T09:00:11;9.10;68.08
66343;DHT22;53144;51.524;5.080;2023-04-25T09:02:39;9.24;67.71
66343;DHT22;53144;51.524;5.080;2023-04-25T09:05:05;9.45;68.94
66343;DHT22;53144;51.524;5.080;2023-04-25T09:07:32;9.52;67.82
66343;DHT22;53144;51.524;5.080;2023-04-25T09:09:58;9.63;67.36
66343;DHT22;53144;51.524;5.080;2023-04-25T09:12:27;9.26;66.47
66343;DHT22;53144;51.524;5.080;2023-04-25T09:15:10;9.54;67.38
66343;DHT22;53144;51.524;5.080;2023-04-25T09:17:36;9.47;67.10
66343;DHT22;53144;51.524;5.080;2023-04-25T09:20:10;9.31;67.09
66343;DHT22;53144;51.524;5.080;2023-04-25T09:22:36;9.69;68.07
66343;DHT22;53144;51.524;5.080;2023-04-25T09:25:09;9.79;64.01
66343;DHT22;53144;51.524;5.080;2023-04-25T09:27:35;9.98;63.77
66343;DHT22;53144;51.524;5.080;2023-04-25T09:30:01;10.02;63.46
66343;DHT22;53144;51.524;5.080;2023-04-25T09:32:27;10.06;62.94
66343;DHT22;53144;51.524;5.080;2023-04-25T09:34:56;10.10;63.05
66343;DHT22;53144;51.524;5.080;2023-04-25T09:37:27;10.41;63.55
66343;DHT22;53144;51.524;5.080;2023-04-25T09:39:57;10.29;61.41
66343;DHT22;53144;51.524;5.080;2023-04-25T09:42:26;10.60;61.60
66343;DHT22;53144;51.524;5.080;2023-04-25T09:44:53;10.68;61.49
66343;DHT22;53144;51.524;5.080;2023-04-25T09:47:19;10.20;62.62
66343;DHT22;53144;51.524;5.080;2023-04-25T09:49:48;10.24;62.76
66343;DHT22;53144;51.524;5.080;2023-04-25T09:52:14;10.61;61.68
66343;DHT22;53144;51.524;5.080;2023-04-25T09:54:40;10.64;61.15
66343;DHT22;53144;51.524;5.080;2023-04-25T09:57:22;10.50;62.85
66343;DHT22;53144;51.524;5.080;2023-04-25T09:59:52;10.47;61.66
66343;DHT22;53144;51.524;5.080;2023-04-25T10:02:19;10.48;63.47
66343;DHT22;53144;51.524;5.080;2023-04-25T10:04:48;10.41;60.55
66343;DHT22;53144;51.524;5.080;2023-04-25T10:07:14;10.19;61.11
66343;DHT22;53144;51.524;5.080;2023-04-25T10:09:41;9.82;60.79
66343;DHT22;53144;51.524;5.080;2023-04-25T10:12:07;9.48;62.19
66343;DHT22;53144;51.524;5.080;2023-04-25T10:14:34;9.57;62.55
66343;DHT22;53144;51.524;5.080;2023-04-25T10:17:00;9.44;63.39
66343;DHT22;53144;51.524;5.080;2023-04-25T10:19:26;9.44;63.55
66343;DHT22;53144;51.524;5.080;2023-04-25T10:24:17;9.32;63.59
66343;DHT22;53144;51.524;5.080;2023-04-25T10:26:44;9.26;64.13
66343;DHT22;53144;51.524;5.080;2023-04-25T10:29:10;9.16;61.86
66343;DHT22;53144;51.524;5.080;2023-04-25T10:31:45;9.20;62.20
66343;DHT22;53144;51.524;5.080;2023-04-25T10:34:11;9.06;61.19
66343;DHT22;53144;51.524;5.080;2023-04-25T10:36:36;9.28;62.84
66343;DHT22;53144;51.524;5.080;2023-04-25T10:39:06;9.28;61.62
66343;DHT22;53144;51.524;5.080;2023-04-25T10:41:46;9.55;61.26
66343;DHT22;53144;51.524;5.080;2023-04-25T10:44:13;9.78;59.96
66343;DHT22;53144;51.524;5.080;2023-04-25T10:46:39;9.93;60.43
66343;DHT22;53144;51.524;5.080;2023-04-25T10:49:05;10.77;60.05
66343;DHT22;53144;51.524;5.080;2023-04-25T10:51:34;10.26;60.36
66343;DHT22;53144;51.524;5.080;2023-04-25T10:54:02;10.86;58.65
66343;DHT22;53144;51.524;5.080;2023-04-25T10:56:29;11.78;58.65
66343;DHT22;53144;51.524;5.080;2023-04-25T10:59:15;11.70;58.69
66343;DHT22;53144;51.524;5.080;2023-04-25T11:01:44;11.50;58.38
66343;DHT22;53144;51.524;5.080;2023-04-25T11:04:29;10.36;61.35
66343;DHT22;53144;51.524;5.080;2023-04-25T11:09:48;9.81;63.07
66343;DHT22;53144;51.524;5.080;2023-04-25T11:12:14;9.49;62.68
66343;DHT22;53144;51.524;5.080;2023-04-25T11:14:40;9.88;63.55
66343;DHT22;53144;51.524;5.080;2023-04-25T11:17:05;10.84;61.69
66343;DHT22;53144;51.524;5.080;2023-04-25T11:19:31;10.74;58.70
66343;DHT22;53144;51.524;5.080;2023-04-25T11:21:58;10.82;60.35
66343;DHT22;53144;51.524;5.080;2023-04-25T11:24:27;10.43;63.52
66343;DHT22;53144;51.524;5.080;2023-04-25T11:26:53;9.81;69.01
66343;DHT22;53144;51.524;5.080;2023-04-25T11:29:21;9.48;69.53
66343;DHT22;53144;51.524;5.080;2023-04-25T11:31:47;9.55;70.04
66343;DHT22;53144;51.524;5.080;2023-04-25T11:34:16;9.51;69.02
66343;DHT22;53144;51.524;5.080;2023-04-25T11:36:41;9.03;67.33
66343;DHT22;53144;51.524;5.080;2023-04-25T11:39:07;9.13;69.93
66343;DHT22;53144;51.524;5.080;2023-04-25T11:41:32;9.24;69.27
66343;DHT22;53144;51.524;5.080;2023-04-25T11:43:57;9.07;68.89
66343;DHT22;53144;51.524;5.080;2023-04-25T11:46:23;9.18;69.82
66343;DHT22;53144;51.524;5.080;2023-04-25T11:48:48;9.27;68.63
66343;DHT22;53144;51.524;5.080;2023-04-25T11:51:15;9.27;68.28
66343;DHT22;53144;51.524;5.080;2023-04-25T11:53:42;9.07;67.63
66343;DHT22;53144;51.524;5.080;2023-04-25T11:56:10;9.21;67.93
66343;DHT22;53144;51.524;5.080;2023-04-25T12:01:34;10.67;63.02
66343;DHT22;53144;51.524;5.080;2023-04-25T12:06:40;12.94;58.39
66343;DHT22;53144;51.524;5.080;2023-04-25T12:09:11;14.12;52.93
66343;DHT22;53144;51.524;5.080;2023-04-25T12:11:53;13.18;54.75
66343;DHT22;53144;51.524;5.080;2023-04-25T12:14:30;12.33;56.54
66343;DHT22;53144;51.524;5.080;2023-04-25T12:17:01;11.08;58.92
66343;DHT22;53144;51.524;5.080;2023-04-25T12:19:37;10.40;60.51
66343;DHT22;53144;51.524;5.080;2023-04-25T12:22:19;9.54;62.47
66343;DHT22;53144;51.524;5.080;2023-04-25T12:24:46;9.35;63.65
66343;DHT22;53144;51.524;5.080;2023-04-25T12:27:13;9.23;64.50
66343;DHT22;53144;51.524;5.080;2023-04-25T12:29:50;9.23;65.61
66343;DHT22;53144;51.524;5.080;2023-04-25T12:32:16;9.31;65.28
66343;DHT22;53144;51.524;5.080;2023-04-25T12:34:43;9.10;66.32
66343;DHT22;53144;51.524;5.080;2023-04-25T12:37:08;8.79;66.61
66343;DHT22;53144;51.524;5.080;2023-04-25T12:39:34;9.03;67.02
66343;DHT22;53144;51.524;5.080;2023-04-25T12:41:59;9.34;67.20
66343;DHT22;53144;51.524;5.080;2023-04-25T12:44:25;9.30;66.19
66343;DHT22;53144;51.524;5.080;2023-04-25T12:46:50;9.28;64.96
66343;DHT22;53144;51.524;5.080;2023-04-25T12:49:15;10.67;61.91
66343;DHT22;53144;51.524;5.080;2023-04-25T12:51:41;11.11;58.33
66343;DHT22;53144;51.524;5.080;2023-04-25T12:54:07;12.86;56.42
66343;DHT22;53144;51.524;5.080;2023-04-25T12:56:34;13.68;54.94
66343;DHT22;53144;51.524;5.080;2023-04-25T12:58:59;14.84;48.97
66343;DHT22;53144;51.524;5.080;2023-04-25T13:01:25;13.61;50.73
66343;DHT22;53144;51.524;5.080;2023-04-25T13:03:51;12.25;52.96
66343;DHT22;53144;51.524;5.080;2023-04-25T13:06:18;10.79;55.79
66343;DHT22;53144;51.524;5.080;2023-04-25T13:08:44;10.24;58.46
66343;DHT22;53144;51.524;5.080;2023-04-25T13:11:09;10.34;59.99
66343;DHT22;53144;51.524;5.080;2023-04-25T13:13:35;10.21;60.16
66343;DHT22;53144;51.524;5.080;2023-04-25T13:16:01;10.58;59.95
66343;DHT22;53144;51.524;5.080;2023-04-25T13:18:28;10.27;58.65
66343;DHT22;53144;51.524;5.080;2023-04-25T13:20:53;10.96;57.23
66343;DHT22;53144;51.524;5.080;2023-04-25T13:23:18;11.32;58.45
66343;DHT22;53144;51.524;5.080;2023-04-25T13:25:44;11.04;56.53
66343;DHT22;53144;51.524;5.080;2023-04-25T13:28:09;10.74;57.64
66343;DHT22;53144;51.524;5.080;2023-04-25T13:30:35;10.44;57.49
66343;DHT22;53144;51.524;5.080;2023-04-25T13:33:00;10.48;57.63
66343;DHT22;53144;51.524;5.080;2023-04-25T13:35:29;10.85;58.34
66343;DHT22;53144;51.524;5.080;2023-04-25T13:37:55;10.99;57.61
66343;DHT22;53144;51.524;5.080;2023-04-25T13:40:20;11.73;58.35
66343;DHT22;53144;51.524;5.080;2023-04-25T13:42:46;11.52;57.24
66343;DHT22;53144;51.524;5.080;2023-04-25T13:45:11;10.63;58.31
66343;DHT22;53144;51.524;5.080;2023-04-25T13:47:37;10.44;59.94
66343;DHT22;53144;51.524;5.080;2023-04-25T13:50:02;10.29;58.43
66343;DHT22;53144;51.524;5.080;2023-04-25T13:52:29;9.99;57.95
66343;DHT22;53144;51.524;5.080;2023-04-25T13:54:54;10.05;58.69
66343;DHT22;53144;51.524;5.080;2023-04-25T13:57:19;10.44;59.44
66343;DHT22;53144;51.524;5.080;2023-04-25T13:59:45;10.75;56.24
66343;DHT22;53144;51.524;5.080;2023-04-25T14:02:11;11.18;54.39
66343;DHT22;53144;51.524;5.080;2023-04-25T14:04:37;11.19;54.82
66343;DHT22;53144;51.524;5.080;2023-04-25T14:07:02;11.19;55.03
66343;DHT22;53144;51.524;5.080;2023-04-25T14:09:28;11.75;55.06
66343;DHT22;53144;51.524;5.080;2023-04-25T14:11:54;11.29;53.68
66343;DHT22;53144;51.524;5.080;2023-04-25T14:14:19;10.57;53.99
66343;DHT22;53144;51.524;5.080;2023-04-25T14:16:46;10.27;54.85
66343;DHT22;53144;51.524;5.080;2023-04-25T14:19:13;10.57;56.39
66343;DHT22;53144;51.524;5.080;2023-04-25T14:21:39;10.51;57.64
66343;DHT22;53144;51.524;5.080;2023-04-25T14:24:04;10.09;56.97
66343;DHT22;53144;51.524;5.080;2023-04-25T14:26:30;10.10;58.62
66343;DHT22;53144;51.524;5.080;2023-04-25T14:28:55;10.03;57.22
66343;DHT22;53144;51.524;5.080;2023-04-25T14:31:21;10.20;56.53
66343;DHT22;53144;51.524;5.080;2023-04-25T14:33:46;10.61;55.83
66343;DHT22;53144;51.524;5.080;2023-04-25T14:36:12;10.43;54.28
66343;DHT22;53144;51.524;5.080;2023-04-25T14:38:37;10.75;54.68
66343;DHT22;53144;51.524;5.080;2023-04-25T14:41:03;11.04;55.25
66343;DHT22;53144;51.524;5.080;2023-04-25T14:43:28;10.74;51.92
66343;DHT22;53144;51.524;5.080;2023-04-25T14:45:53;10.65;51.19
66343;DHT22;53144;51.524;5.080;2023-04-25T14:48:19;11.02;53.44
66343;DHT22;53144;51.524;5.080;2023-04-25T14:50:47;11.04;51.23
66343;DHT22;53144;51.524;5.080;2023-04-25T14:53:12;11.27;51.67
66343;DHT22;53144;51.524;5.080;2023-04-25T14:55:38;10.92;52.54
66343;DHT22;53144;51.524;5.080;2023-04-25T14:58:03;10.77;52.03
66343;DHT22;53144;51.524;5.080;2023-04-25T15:00:29;10.60;56.17
66343;DHT22;53144;51.524;5.080;2023-04-25T15:02:55;10.20;58.38
66343;DHT22;53144;51.524;5.080;2023-04-25T15:05:21;10.21;57.64
66343;DHT22;53144;51.524;5.080;2023-04-25T15:07:46;9.72;56.33
66343;DHT22;53144;51.524;5.080;2023-04-25T15:10:12;9.77;57.73
66343;DHT22;53144;51.524;5.080;2023-04-25T15:12:45;9.92;57.75
66343;DHT22;53144;51.524;5.080;2023-04-25T15:15:11;10.00;58.73
66343;DHT22;53144;51.524;5.080;2023-04-25T15:17:37;10.09;59.42
66343;DHT22;53144;51.524;5.080;2023-04-25T15:20:03;10.09;57.88
66343;DHT22;53144;51.524;5.080;2023-04-25T15:22:30;10.06;57.82
66343;DHT22;53144;51.524;5.080;2023-04-25T15:24:55;10.14;60.04
66343;DHT22;53144;51.524;5.080;2023-04-25T15:27:21;10.17;60.25
66343;DHT22;53144;51.524;5.080;2023-04-25T15:29:47;9.95;62.94
66343;DHT22;53144;51.524;5.080;2023-04-25T15:32:12;9.88;63.08
66343;DHT22;53144;51.524;5.080;2023-04-25T15:34:37;9.65;64.61
66343;DHT22;53144;51.524;5.080;2023-04-25T15:37:03;9.74;63.69
66343;DHT22;53144;51.524;5.080;2023-04-25T15:39:28;9.68;64.07
66343;DHT22;53144;51.524;5.080;2023-04-25T15:41:53;9.58;63.68
66343;DHT22;53144;51.524;5.080;2023-04-25T15:44:19;9.47;63.44
66343;DHT22;53144;51.524;5.080;2023-04-25T15:46:44;9.55;63.50